createdAt,value
2018-04-22T00:00:44.714Z,98250.47
2018-04-22T00:03:12.988Z,98249.34
2018-04-22T00:05:41.267Z,98249.67
2018-04-22T00:08:09.527Z,98246.63
2018-04-22T00:10:37.835Z,98251.63
2018-04-22T00:13:06.098Z,98244.60
2018-04-22T00:15:34.362Z,98246.01
2018-04-22T00:18:02.650Z,98240.72
2018-04-22T00:20:30.915Z,98238.77
2018-04-22T00:22:59.197Z,98231.92
2018-04-22T00:25:27.471Z,98225.72
2018-04-22T00:27:55.759Z,98220.73
2018-04-22T00:30:24.048Z,98223.78
2018-04-22T00:32:52.335Z,98222.02
2018-04-22T00:35:20.604Z,98218.45
2018-04-22T00:37:48.875Z,98211.98
2018-04-22T00:40:17.151Z,98210.79
2018-04-22T00:42:45.417Z,98203.25
2018-04-22T00:45:13.694Z,98196.75
2018-04-22T00:47:41.968Z,98195.59
2018-04-22T00:50:10.253Z,98192.89
2018-04-22T00:52:38.528Z,98189.69
2018-04-22T00:55:06.812Z,98187.95
2018-04-22T00:57:35.085Z,98187.11
2018-04-22T01:00:03.346Z,98187.09
2018-04-22T01:02:31.626Z,98185.07
2018-04-22T01:04:59.898Z,98182.64
2018-04-22T01:07:28.182Z,98181.06
2018-04-22T01:09:56.534Z,98179.72
2018-04-22T01:12:24.800Z,98172.60
2018-04-22T01:14:53.070Z,98168.34
2018-04-22T01:17:21.347Z,98171.31
2018-04-22T01:19:49.636Z,98174.80
2018-04-22T01:22:17.903Z,98170.98
2018-04-22T01:24:46.168Z,98170.26
2018-04-22T01:27:15.216Z,98168.89
2018-04-22T01:29:43.487Z,98172.09
2018-04-22T01:32:12.538Z,98178.41
2018-04-22T01:34:41.567Z,98177.80
2018-04-22T01:37:09.840Z,98178.32
2018-04-22T01:39:38.118Z,98175.82
2018-04-22T01:42:06.386Z,98173.76
2018-04-22T01:44:34.928Z,98172.80
2018-04-22T01:47:03.988Z,98168.05
2018-04-22T01:49:32.263Z,98173.55
2018-04-22T01:52:00.559Z,98171.86
2018-04-22T01:54:28.846Z,98173.11
2018-04-22T01:56:57.104Z,98167.13
2018-04-22T01:59:25.381Z,98167.23
2018-04-22T02:01:54.405Z,98168.52
2018-04-22T02:04:23.428Z,98156.14
2018-04-22T02:06:51.716Z,98154.77
2018-04-22T02:09:19.971Z,98155.30
2018-04-22T02:11:48.247Z,98148.41
2018-04-22T02:14:16.513Z,98142.92
2018-04-22T02:16:45.564Z,98142.96
2018-04-22T02:19:13.840Z,98143.34
2018-04-22T02:21:42.106Z,98138.59
2018-04-22T02:24:11.158Z,98134.20
2018-04-22T02:26:39.426Z,98132.17
2018-04-22T02:29:08.492Z,98128.39
2018-04-22T02:31:36.754Z,98124.06
2018-04-22T02:34:05.019Z,98115.01
2018-04-22T02:36:33.318Z,98117.67
2018-04-22T02:39:01.584Z,98117.75
2018-04-22T02:41:29.867Z,98110.63
2018-04-22T02:43:58.150Z,98105.47
2018-04-22T02:46:26.419Z,98109.37
2018-04-22T02:48:54.699Z,98105.92
2018-04-22T02:51:22.964Z,98106.28
2018-04-22T02:53:51.248Z,98107.48
2018-04-22T02:56:19.512Z,98098.48
2018-04-22T02:58:47.778Z,98096.22
2018-04-22T03:01:16.051Z,98099.30
2018-04-22T03:03:44.313Z,98101.98
2018-04-22T03:06:12.588Z,98101.66
2018-04-22T03:08:40.843Z,98108.98
2018-04-22T03:11:09.121Z,98102.97
2018-04-22T03:13:37.395Z,98101.59
2018-04-22T03:16:05.733Z,98099.88
2018-04-22T03:18:34.072Z,98093.57
2018-04-22T03:21:02.331Z,98096.25
2018-04-22T03:23:30.602Z,98092.36
2018-04-22T03:25:58.861Z,98090.20
2018-04-22T03:28:27.993Z,98085.03
2018-04-22T03:30:56.287Z,98083.34
2018-04-22T03:33:24.653Z,98081.73
2018-04-22T03:35:52.927Z,98082.80
2018-04-22T03:38:21.199Z,98077.14
2018-04-22T03:40:49.463Z,98081.39
2018-04-22T03:43:17.750Z,98074.18
2018-04-22T03:45:46.010Z,98074.65
2018-04-22T03:48:14.298Z,98072.59
2018-04-22T03:50:42.563Z,98078.64
2018-04-22T03:53:10.890Z,98079.55
2018-04-22T03:55:39.167Z,98078.67
2018-04-22T03:58:07.514Z,98075.12
2018-04-22T04:00:35.778Z,98076.30
2018-04-22T04:03:04.080Z,98063.80
2018-04-22T04:05:32.354Z,98073.71
2018-04-22T04:08:00.621Z,98068.13
2018-04-22T04:10:28.907Z,98070.64
2018-04-22T04:12:57.191Z,98067.56
2018-04-22T04:15:25.464Z,98060.20
2018-04-22T04:21:21.323Z,98055.45
2018-04-22T04:30:28.512Z,98062.08
2018-04-22T04:32:56.789Z,98059.05
2018-04-22T04:35:25.052Z,98046.06
2018-04-22T04:37:53.334Z,98053.27
2018-04-22T04:40:21.634Z,98048.04
2018-04-22T04:42:49.901Z,98049.31
2018-04-22T04:45:18.278Z,98050.56
2018-04-22T04:47:46.550Z,98048.01
2018-04-22T04:50:14.832Z,98050.84
2018-04-22T04:52:43.103Z,98056.73
2018-04-22T04:55:11.368Z,98053.88
2018-04-22T04:57:39.664Z,98051.91
2018-04-22T05:00:07.925Z,98046.73
2018-04-22T05:02:36.210Z,98049.30
2018-04-22T05:05:04.475Z,98050.53
2018-04-22T05:07:32.763Z,98050.97
2018-04-22T05:10:01.027Z,98053.42
2018-04-22T05:12:29.301Z,98050.39
2018-04-22T05:14:57.601Z,98055.96
2018-04-22T05:17:25.865Z,98052.09
2018-04-22T05:19:54.140Z,98048.70
2018-04-22T05:22:22.404Z,98043.91
2018-04-22T05:24:50.671Z,98043.44
2018-04-22T05:27:19.734Z,98039.06
2018-04-22T05:29:48.002Z,98035.08
2018-04-22T05:32:16.346Z,98038.80
2018-04-22T05:34:44.644Z,98042.23
2018-04-22T05:37:12.999Z,98040.78
2018-04-22T05:39:41.297Z,98035.59
2018-04-22T05:42:09.551Z,98039.59
2018-04-22T05:44:37.843Z,98036.53
2018-04-22T05:47:06.134Z,98030.78
2018-04-22T05:49:34.423Z,98040.91
2018-04-22T05:52:02.696Z,98027.00
2018-04-22T05:54:30.971Z,98022.51
2018-04-22T05:57:00.008Z,98026.06
2018-04-22T05:59:28.308Z,98023.60
2018-04-22T06:01:57.337Z,98014.20
2018-04-22T06:04:25.678Z,98011.39
2018-04-22T06:06:53.958Z,98007.31
2018-04-22T06:09:22.223Z,98003.65
2018-04-22T06:11:50.493Z,98004.43
2018-04-22T06:14:18.787Z,98002.90
2018-04-22T06:16:47.116Z,98001.66
2018-04-22T06:19:15.399Z,98002.61
2018-04-22T06:21:44.532Z,97997.41
2018-04-22T06:24:12.790Z,97995.66
2018-04-22T06:26:41.081Z,97997.34
2018-04-22T06:29:09.350Z,97994.78
2018-04-22T06:31:37.659Z,97998.92
2018-04-22T06:34:05.928Z,97999.69
2018-04-22T06:36:34.202Z,98001.59
2018-04-22T06:39:02.479Z,97994.76
2018-04-22T06:41:30.740Z,98000.65
2018-04-22T06:43:59.035Z,97996.77
2018-04-22T06:46:27.300Z,97998.39
2018-04-22T06:48:55.551Z,97993.59
2018-04-22T06:51:23.855Z,97982.98
2018-04-22T06:53:52.123Z,97989.18
2018-04-22T06:56:21.403Z,97985.56
2018-04-22T06:58:49.729Z,97989.20
2018-04-22T07:01:17.949Z,97986.95
2018-04-22T07:03:46.983Z,97978.38
2018-04-22T07:06:15.243Z,97979.73
2018-04-22T07:08:43.530Z,97983.39
2018-04-22T07:11:11.811Z,97973.06
2018-04-22T07:13:40.083Z,97975.39
2018-04-22T07:16:08.352Z,97967.11
2018-04-22T07:18:36.626Z,97973.77
2018-04-22T07:21:04.905Z,97973.25
2018-04-22T07:23:33.169Z,97969.91
2018-04-22T07:26:01.438Z,97973.41
2018-04-22T07:28:29.722Z,97971.82
2018-04-22T07:30:57.978Z,97977.92
2018-04-22T07:33:27.034Z,97978.34
2018-04-22T07:35:55.295Z,97970.98
2018-04-22T07:38:23.661Z,97969.23
2018-04-22T07:40:51.933Z,97969.16
2018-04-22T07:43:20.207Z,97967.72
2018-04-22T07:45:48.471Z,97962.27
2018-04-22T07:48:16.776Z,97963.72
2018-04-22T07:50:45.067Z,97959.27
2018-04-22T07:53:13.425Z,97954.11
2018-04-22T07:55:41.679Z,97954.25
2018-04-22T07:58:09.961Z,97957.46
2018-04-22T08:00:38.222Z,97953.14
2018-04-22T08:03:06.630Z,97949.68
2018-04-22T08:05:34.914Z,97951.72
2018-04-22T08:08:03.208Z,97955.14
2018-04-22T08:10:31.511Z,97951.89
2018-04-22T08:12:59.831Z,97955.57
2018-04-22T08:15:28.107Z,97946.41
2018-04-22T08:17:56.389Z,97949.02
2018-04-22T08:20:24.671Z,97944.97
2018-04-22T08:22:52.936Z,97940.97
2018-04-22T08:25:21.218Z,97944.61
2018-04-22T08:27:49.479Z,97946.14
2018-04-22T08:30:19.714Z,97942.61
2018-04-22T08:32:47.988Z,97934.27
2018-04-22T08:35:16.272Z,97928.98
2018-04-22T08:37:44.534Z,97918.09
2018-04-22T08:40:12.802Z,97917.05
2018-04-22T08:42:41.102Z,97915.11
2018-04-22T08:45:09.356Z,97911.47
2018-04-22T08:47:37.750Z,97909.08
2018-04-22T08:50:06.011Z,97910.05
2018-04-22T08:52:34.295Z,97903.45
2018-04-22T08:55:02.583Z,97896.72
2018-04-22T08:57:30.850Z,97882.59
2018-04-22T08:59:59.170Z,97873.51
2018-04-22T09:02:27.444Z,97873.34
2018-04-22T09:04:55.779Z,97874.18
2018-04-22T09:07:24.089Z,97879.40
2018-04-22T09:09:52.344Z,97877.13
2018-04-22T09:12:20.631Z,97876.47
2018-04-22T09:14:48.894Z,97877.11
2018-04-22T09:17:17.183Z,97871.09
2018-04-22T09:19:45.463Z,97872.10
2018-04-22T09:22:13.744Z,97869.70
2018-04-22T09:24:42.093Z,97870.40
2018-04-22T09:27:10.398Z,97870.06
2018-04-22T09:29:38.747Z,97869.69
2018-04-22T09:32:07.040Z,97865.69
2018-04-22T09:34:35.314Z,97869.17
2018-04-22T09:37:03.594Z,97875.68
2018-04-22T09:39:31.871Z,97876.34
2018-04-22T09:42:00.163Z,97871.34
2018-04-22T09:44:28.454Z,97873.14
2018-04-22T09:46:56.787Z,97871.42
2018-04-22T09:49:25.072Z,97869.54
2018-04-22T09:51:53.343Z,97869.68
2018-04-22T09:54:21.639Z,97870.88
2018-04-22T09:56:50.335Z,97867.20
2018-04-22T09:59:18.606Z,97862.32
2018-04-22T10:01:46.892Z,97870.89
2018-04-22T10:04:15.160Z,97866.09
2018-04-22T10:06:43.523Z,97858.38
2018-04-22T10:09:11.796Z,97856.88
2018-04-22T10:11:40.074Z,97848.73
2018-04-22T10:14:08.342Z,97847.49
2018-04-22T10:16:36.667Z,97845.72
2018-04-22T10:19:04.983Z,97840.17
2018-04-22T10:21:33.264Z,97844.28
2018-04-22T10:24:01.544Z,97830.05
2018-04-22T10:26:29.819Z,97836.10
2018-04-22T10:28:58.114Z,97830.30
2018-04-22T10:31:26.412Z,97825.82
2018-04-22T10:33:54.689Z,97824.96
2018-04-22T10:36:24.471Z,97819.48
2018-04-22T10:38:52.835Z,97811.20
2018-04-22T10:41:21.134Z,97801.98
2018-04-22T10:43:49.490Z,97804.88
2018-04-22T10:46:17.777Z,97805.11
2018-04-22T10:48:46.044Z,97803.58
2018-04-22T10:51:14.328Z,97801.54
2018-04-22T10:53:42.599Z,97799.02
2018-04-22T10:56:10.869Z,97797.83
2018-04-22T10:58:39.161Z,97796.28
2018-04-22T11:01:07.463Z,97789.98
2018-04-22T11:03:35.734Z,97787.30
2018-04-22T11:06:04.005Z,97783.25
2018-04-22T11:08:32.377Z,97781.21
2018-04-22T11:11:00.648Z,97778.45
2018-04-22T11:13:28.931Z,97771.02
2018-04-22T11:15:57.216Z,97767.89
2018-04-22T11:18:25.479Z,97768.34
2018-04-22T11:20:54.563Z,97765.58
2018-04-22T11:23:23.002Z,97763.89
2018-04-22T11:25:51.315Z,97755.88
2018-04-22T11:28:19.598Z,97754.44
2018-04-22T11:30:47.875Z,97746.90
2018-04-22T11:33:16.135Z,97744.61
2018-04-22T11:35:44.426Z,97741.36
2018-04-22T11:38:12.692Z,97742.73
2018-04-22T11:40:40.954Z,97739.72
2018-04-22T11:43:09.267Z,97733.76
2018-04-22T11:45:37.623Z,97738.00
2018-04-22T11:48:06.008Z,97728.30
2018-04-22T11:50:34.286Z,97726.30
2018-04-22T11:53:02.669Z,97722.98
2018-04-22T11:55:30.940Z,97725.42
2018-04-22T11:57:59.220Z,97722.91
2018-04-22T12:00:27.487Z,97719.80
2018-04-22T12:02:55.763Z,97711.68
2018-04-22T12:05:24.068Z,97717.83
2018-04-22T12:07:52.419Z,97715.80
2018-04-22T12:10:20.703Z,97719.85
2018-04-22T12:12:48.985Z,97709.58
2018-04-22T12:15:17.352Z,97709.22
2018-04-22T12:17:45.612Z,97706.02
2018-04-22T12:20:13.888Z,97705.63
2018-04-22T12:22:43.003Z,97703.22
2018-04-22T12:25:11.287Z,97699.36
2018-04-22T12:27:39.654Z,97703.91
2018-04-22T12:30:07.934Z,97698.44
2018-04-22T12:32:36.243Z,97695.09
2018-04-22T12:35:04.594Z,97691.30
2018-04-22T12:37:32.968Z,97688.33
2018-04-22T12:40:01.273Z,97683.27
2018-04-22T12:42:29.593Z,97686.47
2018-04-22T12:44:58.634Z,97678.94
2018-04-22T12:47:26.923Z,97683.48
2018-04-22T12:49:55.203Z,97666.67
2018-04-22T12:52:23.542Z,97662.70
2018-04-22T12:54:51.879Z,97660.67
2018-04-22T12:57:20.099Z,97664.55
2018-04-22T12:59:48.355Z,97657.27
2018-04-22T13:02:16.647Z,97655.27
2018-04-22T13:04:44.963Z,97650.84
2018-04-22T13:07:13.306Z,97644.97
2018-04-22T13:09:41.583Z,97636.64
2018-04-22T13:12:09.848Z,97632.88
2018-04-22T13:14:38.162Z,97628.83
2018-04-22T13:17:06.435Z,97625.44
2018-04-22T13:19:34.790Z,97624.44
2018-04-22T13:22:03.050Z,97619.53
2018-04-22T13:24:31.343Z,97620.15
2018-04-22T13:26:59.719Z,97614.64
2018-04-22T13:29:27.982Z,97611.29
2018-04-22T13:31:56.297Z,97604.39
2018-04-22T13:34:24.570Z,97610.42
2018-04-22T13:36:52.851Z,97595.64
2018-04-22T13:39:21.133Z,97603.73
2018-04-22T13:41:49.400Z,97597.75
2018-04-22T13:44:17.678Z,97588.50
2018-04-22T13:46:45.939Z,97587.64
2018-04-22T13:49:14.245Z,97571.27
2018-04-22T13:51:42.507Z,97577.11
2018-04-22T13:54:10.796Z,97574.83
2018-04-22T13:56:39.145Z,97580.55
2018-04-22T13:59:07.408Z,97582.14
2018-04-22T14:01:35.678Z,97581.08
2018-04-22T14:04:03.998Z,97583.28
2018-04-22T14:06:32.343Z,97576.00
2018-04-22T14:09:00.599Z,97572.28
2018-04-22T14:11:28.931Z,97567.33
2018-04-22T14:13:57.214Z,97573.94
2018-04-22T14:16:25.528Z,97579.16
2018-04-22T14:18:54.575Z,97571.58
2018-04-22T14:21:22.854Z,97563.05
2018-04-22T14:23:51.160Z,97561.59
2018-04-22T14:26:20.190Z,97557.30
2018-04-22T14:28:48.464Z,97540.09
2018-04-22T14:31:16.741Z,97522.92
2018-04-22T14:33:45.021Z,97518.89
2018-04-22T14:36:13.319Z,97524.92
2018-04-22T14:38:41.599Z,97531.89
2018-04-22T14:41:09.882Z,97531.53
2018-04-22T14:43:38.165Z,97540.15
2018-04-22T14:46:14.261Z,97547.23
2018-04-22T14:49:01.050Z,97557.78
2018-04-22T14:51:29.330Z,97537.42
2018-04-22T14:53:58.362Z,97533.31
2018-04-22T14:56:26.623Z,97540.76
2018-04-22T14:58:54.900Z,97537.70
2018-04-22T15:01:23.168Z,97529.70
2018-04-22T15:03:52.211Z,97530.94
2018-04-22T15:06:20.506Z,97606.73
2018-04-22T15:08:48.787Z,97624.54
2018-04-22T15:11:17.070Z,97590.52
2018-04-22T15:13:45.352Z,97598.92
2018-04-22T15:16:13.675Z,97596.41
2018-04-22T15:18:41.939Z,97611.19
2018-04-22T15:21:10.220Z,97603.77
2018-04-22T15:23:38.485Z,97601.80
2018-04-22T15:26:06.768Z,97604.32
2018-04-22T15:28:35.051Z,97599.81
2018-04-22T15:31:03.317Z,97600.06
2018-04-22T15:33:31.594Z,97591.04
2018-04-22T15:35:59.870Z,97603.09
2018-04-22T15:38:28.183Z,97533.55
2018-04-22T15:40:56.451Z,97542.92
2018-04-22T15:43:24.739Z,97541.03
2018-04-22T15:45:53.023Z,97544.17
2018-04-22T15:48:21.286Z,97548.98
2018-04-22T15:50:50.380Z,97538.03
2018-04-22T15:53:18.642Z,97548.98
2018-04-22T15:55:46.918Z,97544.74
2018-04-22T15:58:15.236Z,97544.84
2018-04-22T16:00:43.548Z,97543.23
2018-04-22T16:03:11.816Z,97541.97
2018-04-22T16:05:40.864Z,97541.27
2018-04-22T16:08:09.134Z,97541.23
2018-04-22T16:10:37.395Z,97542.02
2018-04-22T16:13:05.698Z,97541.35
2018-04-22T16:15:33.967Z,97535.00
2018-04-22T16:18:02.248Z,97536.63
2018-04-22T16:20:30.515Z,97534.80
2018-04-22T16:22:59.603Z,97524.63
2018-04-22T16:25:27.876Z,97516.96
2018-04-22T16:27:56.166Z,97512.77
2018-04-22T16:30:24.421Z,97521.42
2018-04-22T16:32:52.689Z,97539.47
2018-04-22T16:35:21.007Z,97550.74
2018-04-22T16:37:49.239Z,97540.96
2018-04-22T16:40:17.527Z,97548.20
2018-04-22T16:42:45.786Z,97549.53
2018-04-22T16:45:14.052Z,97538.18
2018-04-22T16:47:42.360Z,97534.83
2018-04-22T16:50:10.611Z,97537.61
2018-04-22T16:52:38.902Z,97519.88
2018-04-22T16:55:07.171Z,97517.97
2018-04-22T16:57:35.437Z,97526.58
2018-04-22T17:00:03.728Z,97538.28
2018-04-22T17:02:31.982Z,97522.48
2018-04-22T17:05:01.031Z,97527.27
2018-04-22T17:07:29.304Z,97532.47
2018-04-22T17:09:57.614Z,97532.30
2018-04-22T17:12:25.891Z,97529.25
2018-04-22T17:14:54.975Z,97524.00
2018-04-22T17:17:23.223Z,97525.01
2018-04-22T17:19:51.496Z,97530.78
2018-04-22T17:22:19.790Z,97524.20
2018-04-22T17:24:48.837Z,97530.87
2018-04-22T17:27:17.147Z,97522.13
2018-04-22T17:29:45.445Z,97529.25
2018-04-22T17:32:13.753Z,97532.82
2018-04-22T17:34:42.808Z,97539.55
2018-04-22T17:37:11.108Z,97548.31
2018-04-22T17:39:39.405Z,97554.01
2018-04-22T17:42:08.524Z,97549.66
2018-04-22T17:44:36.962Z,97557.89
2018-04-22T17:47:06.162Z,97552.33
2018-04-22T17:49:34.706Z,97556.19
2018-04-22T17:52:03.128Z,97564.96
2018-04-22T17:54:32.932Z,97564.00
2018-04-22T17:57:01.616Z,97565.48
2018-04-22T17:59:30.322Z,97561.23
2018-04-22T18:01:58.920Z,97554.21
2018-04-22T18:04:27.213Z,97567.07
2018-04-22T18:06:56.024Z,97575.38
2018-04-22T18:09:25.652Z,97586.28
2018-04-22T18:11:54.060Z,97603.13
2018-04-22T18:14:23.101Z,97599.58
2018-04-22T18:16:52.278Z,97584.33
2018-04-22T18:19:21.655Z,97577.73
2018-04-22T18:21:50.921Z,97579.86
2018-04-22T18:24:20.107Z,97586.14
2018-04-22T18:26:49.458Z,97574.56
2018-04-22T18:29:19.512Z,97581.86
2018-04-22T18:31:48.928Z,97577.80
2018-04-22T18:34:18.105Z,97577.11
2018-04-22T18:36:48.949Z,97577.14
2018-04-22T18:39:18.178Z,97577.83
2018-04-22T18:41:48.828Z,97578.13
2018-04-22T18:44:18.140Z,97578.17
2018-04-22T18:46:49.536Z,97583.97
2018-04-22T18:49:18.987Z,97581.95
2018-04-22T18:51:49.629Z,97585.00
2018-04-22T18:54:18.901Z,97578.33
2018-04-22T18:56:49.932Z,97573.61
2018-04-22T18:59:19.285Z,97586.42
2018-04-22T19:01:49.801Z,97594.52
2018-04-22T19:04:19.919Z,97583.05
2018-04-22T19:06:50.393Z,97583.99
2018-04-22T19:09:19.823Z,97592.85
2018-04-22T19:11:49.286Z,97587.88
2018-04-22T19:14:18.637Z,97599.09
2018-04-22T19:16:49.810Z,97611.67
2018-04-22T19:19:19.990Z,97636.22
2018-04-22T19:21:49.290Z,97624.48
2018-04-22T19:24:18.639Z,97623.10
2018-04-22T19:26:49.951Z,97623.56
2018-04-22T19:29:19.492Z,97626.62
2018-04-22T19:31:50.043Z,97621.83
2018-04-22T19:34:19.966Z,97619.24
2018-04-22T19:36:49.749Z,97621.38
2018-04-22T19:39:20.222Z,97632.38
2018-04-22T19:41:49.637Z,97622.36
2018-04-22T19:44:19.039Z,97640.45
2018-04-22T19:46:50.026Z,97641.79
2018-04-22T19:49:19.360Z,97629.11
2018-04-22T19:51:50.010Z,97639.86
2018-04-22T19:54:19.428Z,97647.85
2018-04-22T19:56:49.956Z,97653.50
2018-04-22T19:59:19.410Z,97666.01
2018-04-22T20:01:50.204Z,97655.77
2018-04-22T20:04:20.416Z,97659.45
2018-04-22T20:06:51.209Z,97664.09
2018-04-22T20:09:22.235Z,97667.83
2018-04-22T20:11:51.630Z,97666.91
2018-04-22T20:14:21.028Z,97670.13
2018-04-22T20:16:50.754Z,97672.46
2018-04-22T20:19:20.197Z,97673.22
2018-04-22T20:21:51.422Z,97672.59
2018-04-22T20:24:20.684Z,97667.69
2018-04-22T20:26:50.852Z,97668.48
2018-04-22T20:29:20.299Z,97670.28
2018-04-22T20:31:50.811Z,97672.86
2018-04-22T20:34:20.098Z,97674.19
2018-04-22T20:36:49.366Z,97666.02
2018-04-22T20:39:18.660Z,97661.63
2018-04-22T20:41:48.019Z,97664.72
2018-04-22T20:44:18.470Z,97657.55
2018-04-22T20:46:48.727Z,97661.44
2018-04-22T20:49:17.934Z,97662.42
2018-04-22T20:51:47.575Z,97668.80
2018-04-22T20:54:16.293Z,97675.45
2018-04-22T20:56:45.380Z,97670.90
2018-04-22T20:59:13.651Z,97666.45
2018-04-22T21:01:41.913Z,97674.22
2018-04-22T21:04:10.200Z,97670.67
2018-04-22T21:06:38.474Z,97675.45
2018-04-22T21:09:06.743Z,97673.92
2018-04-22T21:11:35.036Z,97671.36
2018-04-22T21:14:03.308Z,97668.05
2018-04-22T21:16:31.576Z,97670.06
2018-04-22T21:18:59.850Z,97665.47
2018-04-22T21:21:28.116Z,97659.59
2018-04-22T21:23:57.198Z,97670.34
2018-04-22T21:26:26.227Z,97674.66
2018-04-22T21:28:54.501Z,97669.80
2018-04-22T21:31:22.789Z,97674.67
2018-04-22T21:33:51.062Z,97673.86
2018-04-22T21:36:19.328Z,97671.84
2018-04-22T21:38:47.613Z,97671.04
2018-04-22T21:41:15.904Z,97672.63
2018-04-22T21:43:44.183Z,97676.45
2018-04-22T21:46:12.461Z,97674.39
2018-04-22T21:48:40.724Z,97677.94
2018-04-22T21:51:09.003Z,97669.52
2018-04-22T21:53:37.290Z,97683.89
2018-04-22T21:56:05.710Z,97673.57
2018-04-22T21:58:33.935Z,97675.85
2018-04-22T22:01:02.211Z,97680.70
2018-04-22T22:03:31.259Z,97677.58
2018-04-22T22:06:00.307Z,97678.56
2018-04-22T22:08:29.350Z,97681.77
2018-04-22T22:10:58.375Z,97680.98
2018-04-22T22:13:26.642Z,97683.00
2018-04-22T22:15:54.931Z,97681.86
2018-04-22T22:18:23.195Z,97683.42
2018-04-22T22:20:51.463Z,97683.84
2018-04-22T22:23:19.746Z,97688.41
2018-04-22T22:25:48.006Z,97691.84
2018-04-22T22:28:17.039Z,97694.56
2018-04-22T22:30:45.325Z,97691.77
2018-04-22T22:33:13.593Z,97696.78
2018-04-22T22:35:41.884Z,97689.16
2018-04-22T22:38:10.183Z,97689.66
2018-04-22T22:40:38.474Z,97693.20
2018-04-22T22:43:07.503Z,97692.86
2018-04-22T22:45:35.807Z,97695.34
2018-04-22T22:48:04.072Z,97696.18
2018-04-22T22:50:33.114Z,97700.97
2018-04-22T22:53:02.147Z,97700.88
2018-04-22T22:55:30.441Z,97698.73
2018-04-22T22:57:58.703Z,97694.15
2018-04-22T23:00:26.981Z,97688.11
2018-04-22T23:02:55.251Z,97689.88
2018-04-22T23:05:23.508Z,97695.03
2018-04-22T23:07:51.786Z,97692.99
2018-04-22T23:10:20.060Z,97688.23
2018-04-22T23:12:48.351Z,97687.05
2018-04-22T23:15:16.631Z,97688.56
2018-04-22T23:17:44.914Z,97684.33
2018-04-22T23:20:13.179Z,97676.37
2018-04-22T23:22:41.461Z,97680.26
2018-04-22T23:25:09.718Z,97674.80
2018-04-22T23:27:37.984Z,97672.75
2018-04-22T23:30:07.089Z,97666.72
2018-04-22T23:32:35.311Z,97663.23
2018-04-22T23:35:03.571Z,97667.07
2018-04-22T23:37:31.852Z,97665.33
2018-04-22T23:40:00.120Z,97660.98
2018-04-22T23:42:28.390Z,97664.02
2018-04-22T23:44:56.669Z,97663.90
2018-04-22T23:47:25.046Z,97667.09
2018-04-22T23:49:53.313Z,97661.45
2018-04-22T23:52:21.689Z,97665.55
2018-04-22T23:54:49.978Z,97662.42
2018-04-22T23:57:18.254Z,97664.97
2018-04-22T23:59:46.632Z,97670.20
